createdAt,value
2022-08-20T00:02:16.609Z,99623.69
2022-08-20T00:04:45.505Z,99626.50
2022-08-20T00:07:14.228Z,99628.63
2022-08-20T00:09:44.829Z,99638.41
2022-08-20T00:12:17.182Z,99644.34
2022-08-20T00:14:45.426Z,99641.94
2022-08-20T00:17:13.941Z,99657.50
2022-08-20T00:19:42.160Z,99660.59
2022-08-20T00:22:10.439Z,99645.75
2022-08-20T00:24:38.578Z,99672.75
2022-08-20T00:27:08.131Z,99660.16
2022-08-20T00:29:36.387Z,99664.69
2022-08-20T00:32:04.960Z,99675.72
2022-08-20T00:34:33.096Z,99662.69
2022-08-20T00:37:01.224Z,99664.81
2022-08-20T00:39:29.495Z,99658.00
2022-08-20T00:41:57.820Z,99653.47
2022-08-20T00:44:27.706Z,99657.44
2022-08-20T00:46:55.917Z,99664.06
2022-08-20T00:49:28.090Z,99669.44
2022-08-20T00:52:00.236Z,99668.84
2022-08-20T00:54:34.894Z,99648.63
2022-08-20T00:57:06.892Z,99651.00
2022-08-20T00:59:40.049Z,99638.97
2022-08-20T01:02:12.960Z,99625.53
2022-08-20T01:04:43.960Z,99624.97
2022-08-20T01:07:12.272Z,99608.63
2022-08-20T01:09:57.639Z,99601.00
2022-08-20T01:12:27.821Z,99584.03
2022-08-20T01:14:59.976Z,99566.94
2022-08-20T01:17:32.580Z,99566.59
2022-08-20T01:20:06.848Z,99561.38
2022-08-20T01:22:57.716Z,99562.38
2022-08-20T01:25:34.346Z,99564.91
2022-08-20T01:28:04.902Z,99582.91
2022-08-20T01:30:33.937Z,99579.72
2022-08-20T01:33:02.619Z,99577.34
2022-08-20T01:35:31.208Z,99579.53
2022-08-20T01:37:59.399Z,99572.91
2022-08-20T01:40:49.576Z,99580.97
2022-08-20T01:43:19.330Z,99565.38
2022-08-20T01:45:49.982Z,99570.75
2022-08-20T01:48:19.606Z,99571.06
2022-08-20T01:50:56.876Z,99572.19
2022-08-20T01:53:29.965Z,99577.56
2022-08-20T01:55:58.167Z,99586.34
2022-08-20T01:58:29.785Z,99582.34
2022-08-20T02:00:59.070Z,99576.97
2022-08-20T02:03:27.342Z,99567.06
2022-08-20T02:05:55.540Z,99573.19
2022-08-20T02:08:24.759Z,99572.91
2022-08-20T02:10:53.121Z,99577.81
2022-08-20T02:13:21.956Z,99578.53
2022-08-20T02:15:51.701Z,99575.84
2022-08-20T02:18:21.012Z,99579.38
2022-08-20T02:20:51.600Z,99585.31
2022-08-20T02:23:20.194Z,99583.44
2022-08-20T02:25:49.166Z,99587.34
2022-08-20T02:28:19.871Z,99575.13
2022-08-20T02:30:53.523Z,99575.25
2022-08-20T02:33:24.045Z,99580.44
2022-08-20T02:35:56.929Z,99593.69
2022-08-20T02:38:25.828Z,99594.66
2022-08-20T02:40:54.052Z,99600.59
2022-08-20T02:43:22.219Z,99601.16
2022-08-20T02:45:52.085Z,99607.09
2022-08-20T02:48:23.204Z,99606.97
2022-08-20T02:50:55.494Z,99606.66
2022-08-20T02:53:24.457Z,99604.97
2022-08-20T02:55:52.803Z,99607.78
2022-08-20T02:58:21.680Z,99609.94
2022-08-20T03:00:51.715Z,99620.22
2022-08-20T03:03:22.847Z,99632.81
2022-08-20T03:05:53.526Z,99651.75
2022-08-20T03:08:22.764Z,99652.94
2022-08-20T03:10:52.754Z,99654.97
2022-08-20T03:13:23.223Z,99659.06
2022-08-20T03:15:58.786Z,99653.44
2022-08-20T03:18:30.938Z,99657.81
2022-08-20T03:20:59.061Z,99668.19
2022-08-20T03:23:27.493Z,99701.06
2022-08-20T03:25:55.765Z,99690.84
2022-08-20T03:28:24.208Z,99666.66
2022-08-20T03:30:54.842Z,99683.16
2022-08-20T03:33:24.059Z,99692.81
2022-08-20T03:35:52.386Z,99683.50
2022-08-20T03:38:32.325Z,99692.53
2022-08-20T03:41:02.403Z,99680.56
2022-08-20T03:43:31.338Z,99685.25
2022-08-20T03:46:01.200Z,99684.25
2022-08-20T03:48:29.851Z,99690.47
2022-08-20T03:51:00.803Z,99694.88
2022-08-20T03:53:31.593Z,99693.75
2022-08-20T03:56:03.694Z,99668.41
2022-08-20T03:58:35.409Z,99660.78
2022-08-20T04:01:07.162Z,99662.47
2022-08-20T04:03:35.968Z,99679.63
2022-08-20T04:06:04.297Z,99681.22
2022-08-20T04:08:32.566Z,99679.53
2022-08-20T04:11:01.057Z,99689.72
2022-08-20T04:13:31.212Z,99684.09
2022-08-20T04:16:03.680Z,99672.63
2022-08-20T04:21:02.797Z,99642.69
2022-08-20T04:23:31.364Z,99621.34
2022-08-20T04:26:00.934Z,99615.56
2022-08-20T04:28:30.233Z,99613.28
2022-08-20T04:31:00.936Z,99619.94
2022-08-20T04:33:35.944Z,99626.28
2022-08-20T04:36:06.935Z,99649.19
2022-08-20T04:41:22.824Z,99662.28
2022-08-20T04:43:54.132Z,99649.75
2022-08-20T04:46:23.940Z,99638.81
2022-08-20T04:48:52.344Z,99636.00
2022-08-20T04:51:23.060Z,99639.16
2022-08-20T04:53:53.529Z,99634.91
2022-08-20T04:56:24.392Z,99641.44
2022-08-20T04:58:53.562Z,99653.94
2022-08-20T05:01:23.746Z,99660.44
2022-08-20T05:03:54.889Z,99661.31
2022-08-20T05:06:27.527Z,99672.94
2022-08-20T05:08:56.400Z,99672.53
2022-08-20T05:11:36.124Z,99673.09
2022-08-20T05:14:08.151Z,99676.19
2022-08-20T05:16:40.528Z,99670.38
2022-08-20T05:19:12.275Z,99659.63
2022-08-20T05:21:42.212Z,99663.47
2022-08-20T05:24:12.251Z,99660.09
2022-08-20T05:26:40.423Z,99652.88
2022-08-20T05:29:08.630Z,99651.34
2022-08-20T05:31:38.680Z,99648.38
2022-08-20T05:34:11.890Z,99637.19
2022-08-20T05:36:44.758Z,99631.34
2022-08-20T05:39:13.532Z,99645.66
2022-08-20T05:41:42.461Z,99644.69
2022-08-20T05:44:13.768Z,99652.63
2022-08-20T05:46:43.558Z,99657.88
2022-08-20T05:49:15.116Z,99656.00
2022-08-20T05:51:45.133Z,99652.31
2022-08-20T05:54:13.885Z,99648.38
2022-08-20T05:56:42.487Z,99663.22
2022-08-20T05:59:12.572Z,99659.56
2022-08-20T06:01:42.080Z,99647.50
2022-08-20T06:04:25.368Z,99642.94
2022-08-20T06:06:56.903Z,99634.44
2022-08-20T06:09:31.290Z,99639.25
2022-08-20T06:12:02.571Z,99627.53
2022-08-20T06:14:31.292Z,99638.00
2022-08-20T06:17:05.342Z,99644.50
2022-08-20T06:19:34.882Z,99646.16
2022-08-20T06:22:17.998Z,99654.34
2022-08-20T06:24:50.263Z,99656.75
2022-08-20T06:27:18.524Z,99666.22
2022-08-20T06:29:46.696Z,99659.84
2022-08-20T06:32:14.873Z,99667.81
2022-08-20T06:34:50.174Z,99674.47
2022-08-20T06:37:28.145Z,99672.78
2022-08-20T06:40:04.759Z,99684.09
2022-08-20T06:42:32.978Z,99689.66
2022-08-20T06:45:05.706Z,99683.25
2022-08-20T06:47:34.895Z,99684.09
2022-08-20T06:50:03.214Z,99691.88
2022-08-20T06:52:51.955Z,99707.13
2022-08-20T06:55:21.570Z,99712.91
2022-08-20T06:57:58.260Z,99703.75
2022-08-20T07:00:27.610Z,99716.63
2022-08-20T07:02:56.044Z,99714.63
2022-08-20T07:05:24.385Z,99744.75
2022-08-20T07:07:53.952Z,99744.25
2022-08-20T07:10:24.860Z,99744.41
2022-08-20T07:12:53.662Z,99738.22
2022-08-20T07:15:23.916Z,99724.50
2022-08-20T07:17:54.726Z,99734.44
2022-08-20T07:20:25.737Z,99733.63
2022-08-20T07:22:55.464Z,99733.47
2022-08-20T07:25:24.523Z,99733.94
2022-08-20T07:27:52.865Z,99734.94
2022-08-20T07:30:56.895Z,99739.03
2022-08-20T07:33:28.409Z,99750.81
2022-08-20T07:35:56.944Z,99760.75
2022-08-20T07:38:28.257Z,99767.28
2022-08-20T07:40:58.287Z,99767.53
2022-08-20T07:43:27.714Z,99783.47
2022-08-20T07:45:58.793Z,99804.06
2022-08-20T07:48:32.667Z,99832.59
2022-08-20T07:51:04.794Z,99847.09
2022-08-20T07:53:36.378Z,99884.31
2022-08-20T07:56:07.399Z,99886.47
2022-08-20T07:58:37.423Z,99899.19
2022-08-20T08:01:06.780Z,99892.81
2022-08-20T08:03:39.845Z,57910.59
2022-08-20T08:06:30.501Z,57910.59
2022-08-20T08:09:05.138Z,57910.59
2022-08-20T08:11:36.249Z,57910.59
2022-08-20T08:14:08.291Z,57910.59
2022-08-20T08:16:37.590Z,57910.59
2022-08-20T08:19:11.999Z,57910.59
2022-08-20T08:21:41.283Z,57910.59
2022-08-20T08:24:12.709Z,57910.59
2022-08-20T08:26:42.676Z,57910.59
2022-08-20T08:29:12.130Z,57910.59
2022-08-20T08:31:41.121Z,57910.59
2022-08-20T08:34:09.252Z,57910.59
2022-08-20T08:36:39.355Z,57910.59
2022-08-20T08:39:07.574Z,57910.59
2022-08-20T08:41:41.319Z,57910.59
2022-08-20T08:44:11.517Z,57910.59
2022-08-20T08:46:43.659Z,57910.59
2022-08-20T08:49:13.980Z,57910.59
2022-08-20T08:51:46.430Z,57910.59
2022-08-20T08:54:17.862Z,57910.59
2022-08-20T08:56:50.160Z,57910.59
2022-08-20T08:59:20.294Z,57910.59
2022-08-20T09:01:53.708Z,57910.59
2022-08-20T09:04:31.767Z,57910.59
2022-08-20T09:07:01.176Z,57910.59
2022-08-20T09:09:32.537Z,57910.59
2022-08-20T09:12:08.462Z,57910.59
2022-08-20T09:14:37.167Z,57910.59
2022-08-20T09:17:06.269Z,57910.59
2022-08-20T09:19:34.559Z,57910.59
2022-08-20T09:22:09.749Z,57910.59
2022-08-20T09:24:38.385Z,57910.59
2022-08-20T09:27:08.007Z,57910.59
2022-08-20T09:29:36.511Z,57910.59
2022-08-20T09:32:08.354Z,57910.59
2022-08-20T09:34:39.416Z,57910.59
2022-08-20T09:37:08.371Z,57910.59
2022-08-20T09:39:36.538Z,57910.59
2022-08-20T09:42:11.089Z,57910.59
2022-08-20T09:44:39.588Z,57910.59
2022-08-20T09:47:08.174Z,57910.59
2022-08-20T09:49:37.366Z,57910.59
2022-08-20T09:52:08.756Z,57910.59
2022-08-20T09:54:38.772Z,57910.59
2022-08-20T09:57:14.536Z,57910.59
2022-08-20T09:59:43.004Z,57910.59
2022-08-20T10:02:11.159Z,57910.59
2022-08-20T10:04:39.376Z,57910.59
2022-08-20T10:07:10.295Z,57910.59
2022-08-20T10:09:39.372Z,57910.59
2022-08-20T10:12:08.954Z,57910.59
2022-08-20T10:14:38.433Z,57910.59
2022-08-20T10:17:06.635Z,57910.59
2022-08-20T10:19:34.887Z,57910.59
2022-08-20T10:22:03.201Z,57910.59
2022-08-20T10:24:31.548Z,57910.59
2022-08-20T10:27:01.661Z,57910.59
2022-08-20T10:29:30.890Z,57910.59
2022-08-20T10:32:12.062Z,57910.59
2022-08-20T10:34:41.301Z,57910.59
2022-08-20T10:37:09.930Z,57910.59
2022-08-20T10:39:38.415Z,57910.59
2022-08-20T10:42:06.925Z,57910.59
2022-08-20T10:44:35.082Z,57910.59
2022-08-20T10:47:17.283Z,57910.59
2022-08-20T10:49:45.806Z,57910.59
2022-08-20T10:52:14.132Z,57910.59
2022-08-20T10:54:42.378Z,57910.59
2022-08-20T10:57:15.359Z,57910.59
2022-08-20T10:59:44.895Z,57910.59
2022-08-20T11:02:13.432Z,57910.59
2022-08-20T11:04:43.406Z,57910.59
2022-08-20T11:07:13.791Z,57910.59
2022-08-20T11:09:42.485Z,57910.59
2022-08-20T11:12:10.983Z,57910.59
2022-08-20T11:14:39.230Z,57910.59
2022-08-20T11:17:07.807Z,57910.59
2022-08-20T11:19:40.701Z,57910.59
2022-08-20T11:22:10.674Z,57910.59
2022-08-20T11:24:39.716Z,57910.59
2022-08-20T11:27:08.812Z,57910.59
2022-08-20T11:29:37.069Z,57910.59
2022-08-20T11:32:06.235Z,57910.59
2022-08-20T11:34:35.453Z,57910.59
2022-08-20T11:37:03.574Z,57910.59
2022-08-20T11:39:33.215Z,57910.59
2022-08-20T11:42:01.894Z,57910.59
2022-08-20T11:44:30.106Z,57910.59
2022-08-20T11:47:03.540Z,57910.59
2022-08-20T11:49:32.028Z,57910.59
2022-08-20T11:52:00.178Z,57910.59
2022-08-20T11:54:29.565Z,57910.59
2022-08-20T11:56:59.642Z,57910.59
2022-08-20T11:59:33.744Z,57910.59
2022-08-20T12:02:02.523Z,57910.59
2022-08-20T12:04:33.575Z,57910.59
2022-08-20T12:07:10.526Z,57910.59
2022-08-20T12:09:40.054Z,57910.59
2022-08-20T12:12:22.448Z,57910.59
2022-08-20T12:14:50.977Z,57910.59
2022-08-20T12:17:24.009Z,57910.59
2022-08-20T12:19:54.264Z,57910.59
2022-08-20T12:22:25.161Z,57910.59
2022-08-20T12:24:54.573Z,57910.59
2022-08-20T12:27:27.082Z,57910.59
2022-08-20T12:29:58.812Z,57910.59
2022-08-20T12:32:29.391Z,57910.59
2022-08-20T12:34:58.013Z,57910.59
2022-08-20T12:37:30.085Z,57910.59
2022-08-20T12:40:00.061Z,57910.59
2022-08-20T12:42:30.647Z,57910.59
2022-08-20T12:44:59.591Z,57910.59
2022-08-20T12:47:29.383Z,57910.59
2022-08-20T12:50:00.836Z,57910.59
2022-08-20T12:52:30.914Z,57910.59
2022-08-20T12:54:59.686Z,57910.59
2022-08-20T12:57:32.235Z,57910.59
2022-08-20T13:00:03.748Z,57910.59
2022-08-20T13:02:32.974Z,57910.59
2022-08-20T13:05:04.871Z,57910.59
2022-08-20T13:07:34.083Z,57910.59
2022-08-20T13:10:02.482Z,57910.59
2022-08-20T13:12:32.104Z,57910.59
2022-08-20T13:15:00.298Z,57910.59
2022-08-20T13:17:38.247Z,57910.59
2022-08-20T13:20:10.305Z,57910.59
2022-08-20T13:22:38.814Z,57910.59
2022-08-20T13:25:08.472Z,57910.59
2022-08-20T13:27:38.914Z,57910.59
2022-08-20T13:30:09.507Z,57910.59
2022-08-20T13:32:37.804Z,57910.59
2022-08-20T13:35:06.715Z,57910.59
2022-08-20T13:37:35.280Z,57910.59
2022-08-20T13:40:03.751Z,57910.59
2022-08-20T13:42:32.281Z,57910.59
2022-08-20T13:45:02.297Z,57910.59
2022-08-20T13:47:34.263Z,57910.59
2022-08-20T13:50:05.209Z,57910.59
2022-08-20T13:52:35.521Z,57910.59
2022-08-20T13:55:07.007Z,57910.59
2022-08-20T13:57:35.761Z,57910.59
2022-08-20T14:00:08.056Z,57910.59
2022-08-20T14:02:38.226Z,57910.59
2022-08-20T14:05:07.360Z,57910.59
2022-08-20T14:07:35.734Z,57910.59
2022-08-20T14:10:08.349Z,57910.59
2022-08-20T14:12:36.544Z,57910.59
2022-08-20T14:15:08.966Z,57910.59
2022-08-20T14:17:39.255Z,57910.59
2022-08-20T14:20:10.341Z,57910.59
2022-08-20T14:22:38.956Z,57910.59
2022-08-20T14:25:08.954Z,57910.59
2022-08-20T14:27:38.702Z,57910.59
2022-08-20T14:30:11.351Z,57910.59
2022-08-20T14:32:39.739Z,57910.59
2022-08-20T14:35:11.619Z,57910.59
2022-08-20T14:37:42.414Z,57910.59
2022-08-20T14:40:15.041Z,57910.59
2022-08-20T14:42:43.869Z,57910.59
2022-08-20T14:45:18.061Z,57910.59
2022-08-20T14:47:51.876Z,57910.59
2022-08-20T14:50:25.457Z,57910.59
2022-08-20T14:52:55.953Z,57910.59
2022-08-20T14:55:26.708Z,57910.59
2022-08-20T14:57:55.445Z,57910.59
2022-08-20T15:00:27.451Z,57910.59
2022-08-20T15:02:56.451Z,57910.59
2022-08-20T15:05:24.849Z,57910.59
2022-08-20T15:07:54.315Z,57910.59
2022-08-20T15:10:25.217Z,57910.59
2022-08-20T15:12:53.343Z,57910.59
2022-08-20T15:15:21.663Z,57910.59
2022-08-20T15:17:52.926Z,57910.59
2022-08-20T15:20:23.665Z,57910.59
2022-08-20T15:22:59.068Z,57910.59
2022-08-20T15:25:36.471Z,57910.59
2022-08-20T15:28:07.322Z,57910.59
2022-08-20T15:30:36.256Z,57910.59
2022-08-20T15:35:28.914Z,99695.34
2022-08-20T15:37:59.555Z,99690.06
2022-08-20T15:40:30.174Z,99702.97
2022-08-20T15:42:59.435Z,99715.16
2022-08-20T15:45:28.431Z,99705.22
2022-08-20T15:48:04.152Z,99710.22
2022-08-20T15:50:57.251Z,99706.56
2022-08-20T15:53:32.384Z,99708.66
2022-08-20T15:56:09.791Z,99704.84
2022-08-20T15:58:58.859Z,99713.13
2022-08-20T16:01:39.485Z,99723.63
2022-08-20T16:04:26.018Z,99728.72
2022-08-20T16:07:01.505Z,99726.41
2022-08-20T16:09:46.096Z,99719.03
2022-08-20T16:12:21.332Z,99715.75
2022-08-20T16:14:54.902Z,99722.16
2022-08-20T16:17:27.653Z,99719.31
2022-08-20T16:20:03.676Z,99723.69
2022-08-20T16:22:33.557Z,99712.75
2022-08-20T16:25:02.711Z,99717.00
2022-08-20T16:27:43.724Z,99725.88
2022-08-20T16:30:20.927Z,99724.19
2022-08-20T16:32:59.138Z,99731.28
2022-08-20T16:35:32.513Z,99731.59
2022-08-20T16:38:07.526Z,99736.38
2022-08-20T16:40:44.465Z,99730.25
2022-08-20T16:43:22.924Z,99731.41
2022-08-20T16:45:56.900Z,99728.22
2022-08-20T16:48:35.009Z,99729.94
2022-08-20T16:51:06.800Z,99731.63
2022-08-20T16:53:37.738Z,99730.78
2022-08-20T16:56:06.603Z,99740.06
2022-08-20T16:58:34.764Z,99735.97
2022-08-20T17:01:10.072Z,99731.63
2022-08-20T17:03:40.368Z,99728.66
2022-08-20T17:06:18.320Z,99733.50
2022-08-20T17:08:51.352Z,99737.81
2022-08-20T17:11:26.542Z,99733.41
2022-08-20T17:14:05.893Z,99738.69
2022-08-20T17:16:36.552Z,99734.53
2022-08-20T17:19:14.896Z,99726.88
2022-08-20T17:21:43.453Z,99730.13
2022-08-20T17:24:21.554Z,99731.13
2022-08-20T17:26:54.621Z,99731.81
2022-08-20T17:29:25.118Z,99730.97
2022-08-20T17:31:54.975Z,99730.03
2022-08-20T17:34:25.288Z,99730.88
2022-08-20T17:36:56.959Z,99734.16
2022-08-20T17:39:29.075Z,99729.50
2022-08-20T17:42:06.772Z,99731.22
2022-08-20T17:44:41.465Z,99725.81
2022-08-20T17:47:16.125Z,99723.97
2022-08-20T17:49:53.274Z,99724.28
2022-08-20T17:52:38.890Z,99714.34
2022-08-20T17:55:12.323Z,99713.94
2022-08-20T17:57:46.364Z,99715.38
2022-08-20T18:00:23.320Z,99719.19
2022-08-20T18:02:54.015Z,99717.06
2022-08-20T18:05:23.333Z,99719.91
2022-08-20T18:08:11.522Z,99722.72
2022-08-20T18:10:53.963Z,99719.47
2022-08-20T18:13:28.884Z,99724.84
2022-08-20T18:16:01.194Z,99710.84
2022-08-20T18:18:37.469Z,99702.91
2022-08-20T18:21:55.888Z,99698.53
2022-08-20T18:24:27.686Z,99698.53
2022-08-20T18:27:02.324Z,99684.63
2022-08-20T18:29:33.188Z,99680.97
2022-08-20T18:32:03.620Z,99682.50
2022-08-20T18:34:41.268Z,99694.69
2022-08-20T18:37:25.252Z,99694.84
2022-08-20T18:39:53.500Z,99708.00
2022-08-20T18:42:32.225Z,99704.47
2022-08-20T18:45:00.935Z,99708.53
2022-08-20T18:47:37.130Z,99711.66
2022-08-20T18:50:17.300Z,99703.59
2022-08-20T18:52:48.188Z,99704.44
2022-08-20T18:55:30.757Z,99703.44
2022-08-20T18:58:02.412Z,99705.84
2022-08-20T19:00:37.586Z,99704.03
2022-08-20T19:03:16.496Z,99710.38
2022-08-20T19:06:01.609Z,99709.66
2022-08-20T19:08:41.523Z,99704.66
2022-08-20T19:11:26.595Z,99706.09
2022-08-20T19:14:15.480Z,99700.25
2022-08-20T19:16:47.804Z,99705.34
2022-08-20T19:19:18.167Z,99703.78
2022-08-20T19:21:46.476Z,99706.47
2022-08-20T19:24:18.921Z,99701.63
2022-08-20T19:26:56.442Z,99699.22
2022-08-20T19:29:29.895Z,99695.97
2022-08-20T19:31:59.709Z,99697.41
2022-08-20T19:34:28.223Z,99693.53
2022-08-20T19:37:08.991Z,99690.47
2022-08-20T19:39:51.894Z,99690.47
2022-08-20T19:42:24.201Z,99692.88
2022-08-20T19:44:56.331Z,99691.59
2022-08-20T19:47:31.886Z,99687.50
2022-08-20T19:50:13.010Z,99688.03
2022-08-20T19:52:57.146Z,99687.16
2022-08-20T19:55:29.994Z,99684.72
2022-08-20T19:58:06.001Z,99682.19
2022-08-20T20:00:41.220Z,99673.84
2022-08-20T20:03:10.486Z,99679.66
2022-08-20T20:05:51.295Z,99680.38
2022-08-20T20:08:20.135Z,99672.47
2022-08-20T20:10:53.990Z,99666.66
2022-08-20T20:13:23.610Z,99672.13
2022-08-20T20:15:57.248Z,99672.13
2022-08-20T20:18:27.428Z,99667.50
2022-08-20T20:20:58.914Z,99666.38
2022-08-20T20:23:45.618Z,99667.94
2022-08-20T20:26:19.972Z,99669.34
2022-08-20T20:28:50.866Z,99668.97
2022-08-20T20:31:24.996Z,99659.91
2022-08-20T20:33:55.905Z,99659.91
2022-08-20T20:36:36.641Z,99655.09
2022-08-20T20:39:13.724Z,99651.13
2022-08-20T20:41:53.243Z,99658.78
2022-08-20T20:44:27.982Z,99656.22
2022-08-20T20:47:00.558Z,99657.34
2022-08-20T20:49:30.860Z,99645.88
2022-08-20T20:52:01.840Z,99653.38
2022-08-20T20:54:40.718Z,99653.38
2022-08-20T20:57:32.636Z,99647.44
2022-08-20T21:00:09.993Z,99641.09
2022-08-20T21:02:39.844Z,99648.31
2022-08-20T21:05:09.578Z,99645.63
2022-08-20T21:07:50.266Z,99639.25
2022-08-20T21:10:21.925Z,99648.44
2022-08-20T21:12:57.199Z,99643.31
2022-08-20T21:15:27.167Z,99639.53
2022-08-20T21:18:00.614Z,99638.38
2022-08-20T21:20:29.870Z,99649.72
2022-08-20T21:22:59.025Z,99650.84
2022-08-20T21:25:30.005Z,99653.41
2022-08-20T21:27:58.440Z,99655.22
2022-08-20T21:30:27.424Z,99651.00
2022-08-20T21:32:57.435Z,99650.53
2022-08-20T21:35:25.743Z,99643.59
2022-08-20T21:37:54.254Z,99645.16
2022-08-20T21:40:22.480Z,99651.63
2022-08-20T21:42:56.692Z,99647.38
2022-08-20T21:45:28.327Z,99650.25
2022-08-20T21:47:58.927Z,99656.47
2022-08-20T21:50:28.654Z,99653.06
2022-08-20T21:52:59.997Z,99664.81
2022-08-20T21:55:33.044Z,99666.22
2022-08-20T21:58:05.262Z,99664.22
2022-08-20T22:00:51.703Z,99663.22
2022-08-20T22:03:23.519Z,99658.75
2022-08-20T22:05:52.748Z,99655.91
2022-08-20T22:08:26.124Z,99661.53
2022-08-20T22:10:58.799Z,99659.13
2022-08-20T22:13:31.464Z,99654.69
2022-08-20T22:16:00.171Z,99653.56
2022-08-20T22:18:29.744Z,99662.75
2022-08-20T22:20:58.420Z,99657.56
2022-08-20T22:23:26.951Z,99668.47
2022-08-20T22:25:55.151Z,99660.91
2022-08-20T22:28:23.292Z,99659.53
2022-08-20T22:30:51.505Z,99656.25
2022-08-20T22:33:23.353Z,99658.88
2022-08-20T22:35:58.721Z,99652.16
2022-08-20T22:38:26.955Z,99651.72
2022-08-20T22:40:55.433Z,99645.19
2022-08-20T22:43:24.321Z,99642.13
2022-08-20T22:45:55.421Z,99641.44
2022-08-20T22:48:23.685Z,99634.63
2022-08-20T22:50:54.610Z,99634.88
2022-08-20T22:53:25.735Z,99645.03
2022-08-20T22:55:54.622Z,99638.53
2022-08-20T22:58:31.159Z,99641.97
2022-08-20T23:01:02.321Z,99643.00
2022-08-20T23:03:39.906Z,99628.59
2022-08-20T23:06:10.850Z,99622.97
2022-08-20T23:08:39.720Z,99620.84
2022-08-20T23:11:08.016Z,99628.06
2022-08-20T23:13:36.228Z,99624.66
2022-08-20T23:16:05.177Z,99614.06
2022-08-20T23:18:33.559Z,99610.56
2022-08-20T23:21:02.283Z,99612.25
2022-08-20T23:23:32.090Z,99618.09
2022-08-20T23:26:01.432Z,99613.94
2022-08-20T23:28:30.075Z,99609.03
2022-08-20T23:30:58.170Z,99611.59
2022-08-20T23:33:26.362Z,99604.53
2022-08-20T23:35:54.575Z,99611.03
2022-08-20T23:38:23.039Z,99594.16
2022-08-20T23:40:52.569Z,99597.25
2022-08-20T23:43:20.655Z,99595.00
2022-08-20T23:45:48.915Z,99595.84
2022-08-20T23:48:17.199Z,99596.22
2022-08-20T23:50:45.425Z,99596.41
2022-08-20T23:53:13.540Z,99593.91
2022-08-20T23:55:41.737Z,99595.44
2022-08-20T23:58:11.291Z,99594.84
